createdAt,value
2018-10-17T00:00:43.459Z,309.55
2018-10-17T00:03:12.473Z,330.70
2018-10-17T00:05:41.508Z,395.45
2018-10-17T00:08:10.483Z,311.77
2018-10-17T00:10:39.292Z,325.87
2018-10-17T00:13:08.900Z,306.80
2018-10-17T00:15:37.547Z,331.75
2018-10-17T00:18:06.539Z,303.35
2018-10-17T00:20:35.616Z,298.35
2018-10-17T00:23:04.174Z,315.75
2018-10-17T00:25:33.375Z,336.48
2018-10-17T00:28:02.380Z,325.43
2018-10-17T00:30:31.101Z,341.80
2018-10-17T00:32:59.837Z,296.57
2018-10-17T00:35:28.833Z,292.62
2018-10-17T00:37:57.514Z,309.98
2018-10-17T00:40:26.388Z,305.35
2018-10-17T00:42:55.612Z,336.92
2018-10-17T00:45:24.380Z,336.77
2018-10-17T00:47:53.047Z,300.77
2018-10-17T00:50:21.719Z,302.40
2018-10-17T00:52:50.533Z,303.90
2018-10-17T00:55:20.605Z,294.95
2018-10-17T00:57:49.206Z,316.38
2018-10-17T01:00:17.964Z,301.65
2018-10-17T01:02:46.638Z,307.48
2018-10-17T01:05:15.461Z,335.30
2018-10-17T01:07:44.645Z,295.63
2018-10-17T01:10:13.837Z,302.30
2018-10-17T01:12:42.488Z,344.00
2018-10-17T01:15:11.219Z,312.23
2018-10-17T01:17:40.662Z,333.98
2018-10-17T01:20:09.664Z,297.93
2018-10-17T01:22:38.457Z,303.77
2018-10-17T01:25:07.667Z,319.07
2018-10-17T01:27:36.337Z,310.98
2018-10-17T01:30:05.249Z,303.10
2018-10-17T01:32:35.361Z,316.12
2018-10-17T01:35:04.689Z,296.30
2018-10-17T01:37:33.609Z,311.05
2018-10-17T01:40:02.540Z,293.63
2018-10-17T01:42:31.105Z,302.98
2018-10-17T01:44:59.815Z,310.30
2018-10-17T01:47:28.402Z,288.65
2018-10-17T01:49:57.105Z,296.07
2018-10-17T01:52:25.834Z,306.85
2018-10-17T01:54:54.806Z,291.77
2018-10-17T01:57:23.461Z,316.17
2018-10-17T01:59:52.064Z,302.98
2018-10-17T02:02:21.037Z,295.20
2018-10-17T02:04:49.633Z,294.23
2018-10-17T02:07:18.313Z,292.20
2018-10-17T02:09:47.095Z,286.80
2018-10-17T02:12:15.690Z,314.17
2018-10-17T02:14:44.339Z,285.50
2018-10-17T02:17:13.107Z,292.60
2018-10-17T02:19:41.651Z,306.65
2018-10-17T02:22:10.335Z,289.82
2018-10-17T02:24:39.033Z,287.98
2018-10-17T02:27:08.020Z,295.10
2018-10-17T02:29:36.875Z,292.80
2018-10-17T02:32:05.841Z,320.42
2018-10-17T02:34:38.734Z,313.43
2018-10-17T02:37:08.206Z,308.93
2018-10-17T02:39:37.413Z,297.15
2018-10-17T02:42:06.653Z,311.75
2018-10-17T02:44:35.343Z,307.20
2018-10-17T02:47:04.538Z,289.40
2018-10-17T02:49:34.004Z,295.50
2018-10-17T02:52:02.803Z,298.15
2018-10-17T02:54:31.514Z,310.27
2018-10-17T02:57:00.146Z,291.23
2018-10-17T03:02:14.733Z,290.35
2018-10-17T03:04:47.683Z,292.20
2018-10-17T03:07:16.509Z,293.77
2018-10-17T03:09:45.362Z,306.30
2018-10-17T03:12:14.155Z,320.25
2018-10-17T03:14:42.808Z,305.32
2018-10-17T03:17:11.657Z,295.55
2018-10-17T03:19:40.261Z,295.95
2018-10-17T03:22:09.770Z,292.60
2018-10-17T03:24:38.515Z,297.12
2018-10-17T03:27:07.716Z,299.88
2018-10-17T03:29:36.317Z,294.93
2018-10-17T03:32:05.621Z,309.62
2018-10-17T03:34:34.646Z,291.50
2018-10-17T03:37:03.180Z,294.43
2018-10-17T03:39:32.041Z,308.10
2018-10-17T03:42:00.745Z,289.75
2018-10-17T03:44:29.455Z,293.07
2018-10-17T03:46:58.752Z,292.92
2018-10-17T03:49:27.553Z,295.75
2018-10-17T03:51:56.236Z,290.73
2018-10-17T03:54:24.860Z,317.52
2018-10-17T03:56:53.643Z,300.70
2018-10-17T03:59:22.593Z,292.20
2018-10-17T04:01:52.011Z,293.30
2018-10-17T04:04:21.046Z,290.70
2018-10-17T04:06:49.996Z,291.85
2018-10-17T04:09:18.624Z,288.15
2018-10-17T04:11:47.254Z,289.65
2018-10-17T04:14:15.894Z,287.57
2018-10-17T04:16:45.883Z,293.25
2018-10-17T04:19:14.587Z,286.35
2018-10-17T04:21:43.401Z,287.93
2018-10-17T04:24:12.307Z,292.20
2018-10-17T04:26:41.212Z,295.05
2018-10-17T04:29:10.132Z,289.27
2018-10-17T04:31:38.865Z,284.50
2018-10-17T04:34:07.714Z,287.25
2018-10-17T04:36:36.271Z,291.45
2018-10-17T04:39:06.359Z,283.02
2018-10-17T04:41:35.026Z,294.40
2018-10-17T04:44:04.556Z,290.05
2018-10-17T04:46:33.151Z,288.52
2018-10-17T04:49:01.725Z,287.65
2018-10-17T04:51:30.530Z,293.75
2018-10-17T04:53:59.352Z,289.57
2018-10-17T04:56:28.104Z,299.65
2018-10-17T04:58:56.813Z,290.52
2018-10-17T05:01:26.099Z,298.27
2018-10-17T05:03:54.968Z,291.80
2018-10-17T05:06:23.667Z,297.80
2018-10-17T05:08:52.666Z,297.82
2018-10-17T05:11:21.724Z,292.90
2018-10-17T05:13:50.516Z,292.68
2018-10-17T05:16:19.401Z,300.45
2018-10-17T05:18:48.117Z,297.80
2018-10-17T05:21:21.434Z,306.47
2018-10-17T05:23:50.212Z,295.42
2018-10-17T05:26:18.728Z,296.70
2018-10-17T05:28:47.080Z,297.88
2018-10-17T05:31:15.805Z,286.43
2018-10-17T05:33:44.485Z,294.05
2018-10-17T05:36:13.350Z,283.95
2018-10-17T05:38:42.338Z,298.20
2018-10-17T05:41:10.871Z,293.73
2018-10-17T05:43:39.684Z,295.42
2018-10-17T05:46:08.855Z,287.60
2018-10-17T05:48:37.498Z,307.73
2018-10-17T05:51:06.247Z,285.30
2018-10-17T05:53:34.985Z,294.73
2018-10-17T05:56:04.976Z,294.35
2018-10-17T05:58:33.601Z,296.85
2018-10-17T06:01:02.380Z,292.60
2018-10-17T06:03:31.177Z,303.88
2018-10-17T06:06:58.175Z,293.58
2018-10-17T06:09:27.188Z,299.25
2018-10-17T06:11:56.141Z,297.30
2018-10-17T06:14:24.741Z,293.63
2018-10-17T06:16:54.421Z,297.40
2018-10-17T06:19:22.833Z,288.60
2018-10-17T06:21:51.479Z,294.18
2018-10-17T06:24:20.881Z,288.48
2018-10-17T06:26:49.949Z,310.00
2018-10-17T06:29:18.662Z,286.65
2018-10-17T06:31:47.615Z,288.52
2018-10-17T06:34:16.639Z,289.02
2018-10-17T06:36:45.161Z,289.60
2018-10-17T06:39:14.328Z,302.43
2018-10-17T06:41:43.637Z,286.40
2018-10-17T06:44:13.169Z,291.80
2018-10-17T06:46:41.786Z,303.73
2018-10-17T06:49:10.779Z,289.40
2018-10-17T06:51:39.532Z,300.35
2018-10-17T06:54:09.242Z,296.75
2018-10-17T06:56:37.878Z,297.07
2018-10-17T06:59:06.386Z,309.00
2018-10-17T07:01:36.040Z,312.95
2018-10-17T07:04:04.858Z,309.83
2018-10-17T07:06:33.607Z,309.87
2018-10-17T07:09:02.177Z,302.95
2018-10-17T07:11:30.863Z,308.00
2018-10-17T07:14:01.488Z,302.62
2018-10-17T07:16:31.257Z,302.50
2018-10-17T07:18:59.895Z,293.33
2018-10-17T07:21:28.888Z,304.20
2018-10-17T07:23:57.780Z,305.90
2018-10-17T07:26:26.575Z,303.77
2018-10-17T07:28:55.488Z,309.92
2018-10-17T07:31:24.269Z,307.43
2018-10-17T07:33:53.005Z,299.48
2018-10-17T07:36:21.789Z,306.90
2018-10-17T07:38:50.687Z,309.92
2018-10-17T07:41:19.794Z,317.05
2018-10-17T07:43:48.534Z,338.07
2018-10-17T07:46:17.308Z,350.75
2018-10-17T07:48:45.934Z,335.95
2018-10-17T07:51:14.549Z,318.73
2018-10-17T07:53:43.157Z,307.55
2018-10-17T07:56:12.869Z,313.60
2018-10-17T07:58:41.565Z,350.00
2018-10-17T08:01:10.576Z,342.48
2018-10-17T08:03:40.533Z,334.32
2018-10-17T08:06:09.235Z,349.40
2018-10-17T08:08:38.392Z,364.72
2018-10-17T08:11:06.949Z,363.30
2018-10-17T08:13:36.068Z,340.37
2018-10-17T08:16:06.186Z,326.20
2018-10-17T08:18:34.967Z,352.50
2018-10-17T08:21:03.804Z,332.85
2018-10-17T08:23:32.438Z,390.60
2018-10-17T08:26:01.328Z,311.35
2018-10-17T08:28:29.839Z,331.32
2018-10-17T08:30:58.828Z,338.20
2018-10-17T08:33:27.846Z,323.90
2018-10-17T08:35:57.014Z,357.18
2018-10-17T08:38:26.718Z,355.07
2018-10-17T08:40:56.619Z,438.10
2018-10-17T08:43:25.068Z,370.17
2018-10-17T08:45:53.871Z,477.50
2018-10-17T08:48:22.896Z,395.23
2018-10-17T08:50:52.769Z,445.02
2018-10-17T08:53:21.607Z,423.97
2018-10-17T08:55:50.285Z,454.38
2018-10-17T08:58:19.101Z,384.37
2018-10-17T09:00:47.898Z,392.07
2018-10-17T09:03:16.804Z,412.52
2018-10-17T09:05:45.842Z,468.27
2018-10-17T09:08:14.618Z,497.02
2018-10-17T09:10:43.499Z,561.50
2018-10-17T09:13:16.165Z,467.12
2018-10-17T09:15:44.725Z,452.52
2018-10-17T09:18:13.685Z,489.50
2018-10-17T09:20:44.578Z,519.83
2018-10-17T09:23:13.942Z,512.40
2018-10-17T09:25:42.761Z,580.70
2018-10-17T09:31:01.887Z,610.92
2018-10-17T09:33:30.976Z,577.08
2018-10-17T09:35:59.770Z,642.53
2018-10-17T09:38:28.508Z,595.70
2018-10-17T09:40:57.501Z,583.20
2018-10-17T09:43:27.694Z,673.40
2018-10-17T09:45:57.381Z,666.75
2018-10-17T09:48:26.235Z,641.85
2018-10-17T09:50:55.069Z,893.02
2018-10-17T09:53:24.593Z,1057.83
2018-10-17T09:55:53.593Z,1141.95
2018-10-17T09:58:22.873Z,1073.55
2018-10-17T10:00:56.887Z,929.75
2018-10-17T10:03:25.903Z,1184.08
2018-10-17T10:05:54.769Z,1234.93
2018-10-17T10:08:23.718Z,1401.40
2018-10-17T10:13:43.556Z,1512.08
2018-10-17T10:16:12.965Z,1576.95
2018-10-17T10:18:49.388Z,1674.13
2018-10-17T10:21:18.099Z,1685.13
2018-10-17T10:23:47.536Z,1659.95
2018-10-17T10:26:16.388Z,1633.73
2018-10-17T10:28:45.366Z,1619.73
2018-10-17T10:31:14.256Z,1631.90
2018-10-17T10:33:43.309Z,1665.93
2018-10-17T10:36:13.041Z,1768.10
2018-10-17T10:38:41.649Z,1736.18
2018-10-17T10:41:11.142Z,1751.60
2018-10-17T10:43:41.596Z,1751.88
2018-10-17T10:46:12.400Z,1751.33
2018-10-17T10:48:41.588Z,1650.50
2018-10-17T10:51:10.648Z,1627.65
2018-10-17T10:53:46.520Z,1544.65
2018-10-17T10:56:15.950Z,1495.17
2018-10-17T10:58:51.082Z,1485.35
2018-10-17T11:01:20.229Z,1496.90
2018-10-17T11:03:52.686Z,1473.88
2018-10-17T11:06:23.332Z,1388.88
2018-10-17T11:08:52.740Z,1362.80
2018-10-17T11:11:21.404Z,1343.38
2018-10-17T11:13:50.243Z,1326.28
2018-10-17T11:16:18.862Z,1249.33
2018-10-17T11:18:47.596Z,1264.48
2018-10-17T11:21:16.278Z,1198.67
2018-10-17T11:23:45.468Z,1190.63
2018-10-17T11:26:20.104Z,1132.43
2018-10-17T11:28:48.502Z,1090.98
2018-10-17T11:31:18.675Z,1075.78
2018-10-17T11:33:47.733Z,1084.65
2018-10-17T11:36:16.705Z,1060.03
2018-10-17T11:38:45.934Z,1043.33
2018-10-17T11:41:14.797Z,1001.80
2018-10-17T11:43:43.283Z,1144.30
2018-10-17T11:46:12.307Z,1167.88
2018-10-17T11:48:41.396Z,1104.03
2018-10-17T11:51:11.874Z,1154.33
2018-10-17T11:53:40.351Z,1119.38
2018-10-17T11:56:09.319Z,1014.17
2018-10-17T11:58:38.221Z,1025.03
2018-10-17T12:01:07.804Z,1078.58
2018-10-17T12:03:37.454Z,989.60
2018-10-17T12:06:06.454Z,1063.13
2018-10-17T12:08:35.188Z,1013.05
2018-10-17T12:11:04.478Z,1078.35
2018-10-17T12:13:33.683Z,969.25
2018-10-17T12:16:02.472Z,1061.85
2018-10-17T12:18:31.211Z,998.23
2018-10-17T12:21:01.920Z,897.10
2018-10-17T12:23:32.187Z,994.88
2018-10-17T12:26:01.740Z,898.30
2018-10-17T12:28:32.271Z,907.10
2018-10-17T12:31:02.691Z,947.72
2018-10-17T12:33:31.664Z,918.20
2018-10-17T12:36:03.183Z,900.13
2018-10-17T12:38:32.089Z,887.20
2018-10-17T12:41:03.625Z,891.42
2018-10-17T12:43:35.271Z,825.65
2018-10-17T12:46:07.999Z,913.48
2018-10-17T12:48:38.100Z,928.00
2018-10-17T12:51:07.047Z,880.42
2018-10-17T12:53:35.899Z,910.88
2018-10-17T12:56:05.137Z,994.35
2018-10-17T12:58:34.743Z,983.25
2018-10-17T13:01:07.055Z,944.92
2018-10-17T13:03:38.309Z,904.23
2018-10-17T13:06:07.560Z,929.57
2018-10-17T13:08:36.895Z,885.50
2018-10-17T13:11:10.445Z,969.55
2018-10-17T13:13:40.053Z,946.65
2018-10-17T13:16:10.159Z,974.02
2018-10-17T13:18:39.469Z,831.32
2018-10-17T13:23:46.034Z,906.80
2018-10-17T13:26:17.667Z,837.75
2018-10-17T13:28:46.674Z,851.25
2018-10-17T13:31:15.944Z,856.75
2018-10-17T13:33:45.207Z,891.40
2018-10-17T13:36:14.672Z,884.90
2018-10-17T13:38:47.104Z,845.17
2018-10-17T13:41:18.414Z,1003.27
2018-10-17T13:44:13.805Z,975.80
2018-10-17T13:47:08.032Z,1099.97
2018-10-17T13:49:44.646Z,1033.53
2018-10-17T13:52:14.154Z,1035.25
2018-10-17T13:54:43.764Z,1213.18
2018-10-17T13:57:15.457Z,1200.35
2018-10-17T13:59:45.717Z,1181.42
2018-10-17T14:02:18.469Z,1270.95
2018-10-17T14:04:49.216Z,1265.45
2018-10-17T14:07:20.228Z,1305.95
2018-10-17T14:09:50.753Z,1290.35
2018-10-17T14:12:21.954Z,1337.40
2018-10-17T14:14:56.162Z,1333.67
2018-10-17T14:17:29.190Z,1360.33
2018-10-17T14:20:00.555Z,1388.00
2018-10-17T14:22:39.083Z,1411.60
2018-10-17T14:25:13.726Z,1373.15
2018-10-17T14:27:43.599Z,1317.65
2018-10-17T14:30:20.108Z,1373.68
2018-10-17T14:32:54.341Z,1275.58
2018-10-17T14:35:23.917Z,1452.63
2018-10-17T14:37:54.405Z,1385.73
2018-10-17T14:40:26.386Z,1398.83
2018-10-17T14:43:01.105Z,1401.10
2018-10-17T14:45:31.619Z,1402.05
2018-10-17T14:48:01.681Z,1311.23
2018-10-17T14:50:33.124Z,1294.90
2018-10-17T14:53:05.103Z,1196.28
2018-10-17T14:55:35.315Z,1389.83
2018-10-17T14:58:07.567Z,1278.38
2018-10-17T15:00:41.560Z,1217.38
2018-10-17T15:03:14.632Z,1168.05
2018-10-17T15:05:45.603Z,1189.30
2018-10-17T15:08:18.005Z,1264.20
2018-10-17T15:10:50.844Z,1160.50
2018-10-17T15:13:25.014Z,1252.03
2018-10-17T15:15:58.270Z,1176.40
2018-10-17T15:18:34.877Z,1058.42
2018-10-17T15:21:07.766Z,1042.93
2018-10-17T15:23:38.115Z,982.38
2018-10-17T15:26:10.633Z,940.75
2018-10-17T15:28:43.287Z,973.30
2018-10-17T15:31:15.571Z,944.22
2018-10-17T15:33:49.539Z,1115.25
2018-10-17T15:36:25.502Z,929.57
2018-10-17T15:39:01.731Z,931.23
2018-10-17T15:41:38.109Z,958.65
2018-10-17T15:44:18.648Z,982.25
2018-10-17T15:46:56.208Z,973.10
2018-10-17T15:49:27.978Z,964.80
2018-10-17T15:52:02.779Z,898.32
2018-10-17T15:54:37.908Z,874.95
2018-10-17T15:57:09.294Z,850.45
2018-10-17T15:59:39.712Z,890.45
2018-10-17T16:02:12.631Z,942.10
2018-10-17T16:04:44.663Z,870.67
2018-10-17T16:07:14.033Z,951.98
2018-10-17T16:09:44.568Z,852.20
2018-10-17T16:12:14.573Z,967.05
2018-10-17T16:14:45.094Z,1106.13
2018-10-17T16:17:21.745Z,1000.97
2018-10-17T16:19:53.859Z,718.17
2018-10-17T16:22:24.808Z,767.65
2018-10-17T16:24:56.772Z,757.35
2018-10-17T16:27:27.912Z,713.83
2018-10-17T16:29:57.807Z,672.10
2018-10-17T16:32:31.372Z,599.20
2018-10-17T16:35:01.312Z,656.87
2018-10-17T16:37:32.576Z,608.92
2018-10-17T16:40:02.675Z,625.85
2018-10-17T16:42:33.246Z,611.90
2018-10-17T16:45:04.682Z,573.60
2018-10-17T16:47:35.737Z,592.00
2018-10-17T16:50:06.748Z,560.90
2018-10-17T16:52:37.053Z,546.58
2018-10-17T16:55:06.871Z,458.12
2018-10-17T16:57:36.983Z,589.02
2018-10-17T17:00:07.449Z,603.12
2018-10-17T17:02:41.931Z,506.25
2018-10-17T17:05:14.659Z,520.48
2018-10-17T17:07:47.615Z,548.85
2018-10-17T17:10:25.109Z,561.38
2018-10-17T17:12:55.555Z,514.87
2018-10-17T17:15:26.078Z,564.23
2018-10-17T17:17:59.739Z,478.12
2018-10-17T17:20:43.112Z,538.08
2018-10-17T17:23:12.419Z,565.83
2018-10-17T17:25:42.165Z,454.50
2018-10-17T17:28:12.402Z,494.75
2018-10-17T17:30:41.567Z,498.88
2018-10-17T17:33:11.749Z,826.35
2018-10-17T17:35:42.466Z,576.95
2018-10-17T17:38:12.693Z,549.50
2018-10-17T17:40:44.662Z,456.90
2018-10-17T17:43:17.489Z,513.85
2018-10-17T17:45:50.665Z,436.05
2018-10-17T17:48:21.177Z,488.37
2018-10-17T17:50:51.914Z,418.85
2018-10-17T17:53:22.521Z,505.25
2018-10-17T17:55:53.225Z,442.50
2018-10-17T17:58:28.438Z,477.17
2018-10-17T18:01:01.373Z,409.80
2018-10-17T18:03:34.233Z,466.48
2018-10-17T18:06:04.083Z,485.23
2018-10-17T18:08:34.372Z,440.20
2018-10-17T18:11:09.833Z,531.30
2018-10-17T18:13:38.855Z,435.27
2018-10-17T18:16:09.947Z,408.23
2018-10-17T18:18:39.785Z,476.07
2018-10-17T18:21:10.007Z,452.62
2018-10-17T18:23:43.152Z,398.27
2018-10-17T18:26:15.705Z,431.05
2018-10-17T18:28:47.041Z,442.18
2018-10-17T18:31:16.929Z,398.77
2018-10-17T18:33:46.805Z,425.53
2018-10-17T18:36:18.060Z,391.80
2018-10-17T18:38:49.006Z,387.05
2018-10-17T18:41:20.209Z,400.27
2018-10-17T18:43:49.582Z,424.85
2018-10-17T18:46:21.384Z,397.67
2018-10-17T18:48:53.831Z,462.20
2018-10-17T18:51:24.177Z,414.23
2018-10-17T18:53:53.073Z,393.80
2018-10-17T18:56:22.451Z,403.55
2018-10-17T18:58:51.536Z,418.33
2018-10-17T19:01:21.578Z,401.18
2018-10-17T19:03:55.072Z,400.50
2018-10-17T19:06:25.128Z,370.57
2018-10-17T19:08:56.462Z,368.60
2018-10-17T19:11:25.526Z,367.93
2018-10-17T19:13:56.578Z,334.00
2018-10-17T19:16:27.540Z,399.02
2018-10-17T19:18:58.513Z,397.77
2018-10-17T19:21:29.401Z,386.92
2018-10-17T19:24:01.103Z,389.42
2018-10-17T19:26:31.513Z,351.02
2018-10-17T19:29:01.100Z,347.85
2018-10-17T19:31:30.437Z,377.35
2018-10-17T19:34:00.020Z,328.42
2018-10-17T19:36:30.145Z,356.35
2018-10-17T19:38:59.032Z,335.08
2018-10-17T19:41:27.710Z,325.10
2018-10-17T19:43:56.731Z,394.05
2018-10-17T19:46:26.209Z,325.27
2018-10-17T19:48:54.996Z,362.63
2018-10-17T19:51:25.963Z,381.98
2018-10-17T19:53:55.319Z,329.85
2018-10-17T19:56:25.344Z,321.77
2018-10-17T19:58:55.586Z,365.45
2018-10-17T20:01:26.071Z,346.57
2018-10-17T20:03:56.099Z,371.90
2018-10-17T20:06:27.006Z,367.57
2018-10-17T20:09:02.989Z,380.87
2018-10-17T20:11:37.236Z,321.75
2018-10-17T20:14:07.558Z,311.55
2018-10-17T20:16:37.177Z,335.00
2018-10-17T20:19:06.122Z,352.45
2018-10-17T20:21:35.261Z,334.55
2018-10-17T20:24:04.324Z,357.95
2018-10-17T20:26:33.815Z,313.98
2018-10-17T20:29:02.583Z,359.67
2018-10-17T20:31:31.832Z,352.73
2018-10-17T20:34:01.228Z,315.68
2018-10-17T20:36:32.008Z,345.27
2018-10-17T20:39:03.109Z,365.95
2018-10-17T20:41:32.664Z,308.95
2018-10-17T20:44:01.975Z,312.65
2018-10-17T20:46:32.173Z,317.98
2018-10-17T20:49:01.396Z,325.00
2018-10-17T20:51:30.478Z,321.52
2018-10-17T20:54:01.799Z,362.60
2018-10-17T20:56:30.753Z,367.77
2018-10-17T20:58:59.946Z,290.50
2018-10-17T21:01:29.072Z,315.98
2018-10-17T21:03:58.632Z,361.90
2018-10-17T21:06:27.528Z,314.63
2018-10-17T21:08:57.073Z,317.93
2018-10-17T21:11:26.116Z,311.52
2018-10-17T21:13:55.083Z,310.98
2018-10-17T21:16:24.205Z,344.27
2018-10-17T21:18:53.639Z,324.37
2018-10-17T21:21:23.029Z,345.27
2018-10-17T21:23:54.291Z,318.17
2018-10-17T21:26:24.490Z,319.00
2018-10-17T21:28:54.306Z,319.30
2018-10-17T21:31:24.207Z,316.02
2018-10-17T21:33:52.815Z,337.20
2018-10-17T21:36:22.128Z,312.20
2018-10-17T21:38:51.332Z,324.00
2018-10-17T21:41:20.220Z,305.95
2018-10-17T21:43:49.686Z,345.23
2018-10-17T21:46:18.678Z,337.95
2018-10-17T21:48:48.336Z,335.27
2018-10-17T21:51:17.233Z,339.30
2018-10-17T21:53:46.822Z,321.48
2018-10-17T21:56:15.801Z,344.25
2018-10-17T21:58:44.425Z,333.70
2018-10-17T22:01:13.020Z,371.00
2018-10-17T22:03:44.281Z,308.87
2018-10-17T22:06:13.131Z,317.48
2018-10-17T22:08:41.884Z,332.48
2018-10-17T22:11:10.758Z,332.30
2018-10-17T22:13:39.570Z,312.52
2018-10-17T22:16:08.410Z,316.38
2018-10-17T22:18:37.015Z,320.57
2018-10-17T22:21:05.634Z,332.67
2018-10-17T22:23:34.893Z,335.55
2018-10-17T22:26:04.241Z,328.25
2018-10-17T22:28:32.937Z,328.15
2018-10-17T22:31:01.961Z,316.15
2018-10-17T22:33:30.815Z,303.25
2018-10-17T22:35:59.532Z,317.32
2018-10-17T22:38:30.446Z,339.75
2018-10-17T22:40:59.286Z,313.30
2018-10-17T22:43:28.165Z,303.48
2018-10-17T22:45:56.879Z,307.32
2018-10-17T22:48:25.497Z,314.98
2018-10-17T22:50:54.395Z,288.07
2018-10-17T22:53:23.330Z,325.35
2018-10-17T22:55:52.160Z,363.75
2018-10-17T22:58:20.865Z,304.27
2018-10-17T23:00:49.971Z,346.98
2018-10-17T23:03:18.795Z,280.25
2018-10-17T23:05:47.602Z,304.87
2018-10-17T23:08:16.843Z,300.00
2018-10-17T23:10:45.636Z,332.95
2018-10-17T23:13:14.172Z,323.27
2018-10-17T23:15:45.631Z,304.05
2018-10-17T23:18:14.321Z,293.65
2018-10-17T23:20:42.889Z,294.27
2018-10-17T23:23:12.087Z,302.52
2018-10-17T23:25:41.217Z,298.75
2018-10-17T23:28:09.902Z,284.65
2018-10-17T23:30:38.756Z,285.75
2018-10-17T23:33:07.451Z,302.73
2018-10-17T23:35:36.062Z,298.30
2018-10-17T23:38:04.849Z,289.90
2018-10-17T23:40:34.133Z,293.00
2018-10-17T23:43:03.185Z,284.48
2018-10-17T23:45:32.976Z,281.77
2018-10-17T23:48:02.487Z,293.50
2018-10-17T23:50:32.376Z,298.57
2018-10-17T23:53:01.052Z,283.77
2018-10-17T23:55:29.840Z,296.30
2018-10-17T23:57:59.432Z,296.75
